sensor_id;sensor_type;location;lat;lon;timestamp;pressure;altitude;pressure_sealevel;temperature;humidity
51359;BME280;37448;51.588;7.248;2023-04-03T00:01:57;102342.59;;;0.26;87.58
51359;BME280;37448;51.588;7.248;2023-04-03T00:03:57;102339.97;;;0.25;88.88
51359;BME280;37448;51.588;7.248;2023-04-03T00:05:58;102350.31;;;0.26;88.89
51359;BME280;37448;51.588;7.248;2023-04-03T00:07:58;102350.31;;;0.26;89.28
51359;BME280;37448;51.588;7.248;2023-04-03T00:09:59;102354.63;;;0.27;89.05
51359;BME280;37448;51.588;7.248;2023-04-03T00:11:59;102351.25;;;0.28;88.92
51359;BME280;37448;51.588;7.248;2023-04-03T00:14:00;102353.91;;;0.30;88.63
51359;BME280;37448;51.588;7.248;2023-04-03T00:16:00;102354.78;;;0.31;88.65
51359;BME280;37448;51.588;7.248;2023-04-03T00:18:01;102356.69;;;0.35;88.20
51359;BME280;37448;51.588;7.248;2023-04-03T00:20:03;102353.75;;;0.45;85.76
51359;BME280;37448;51.588;7.248;2023-04-03T00:22:03;102348.75;;;0.48;86.46
51359;BME280;37448;51.588;7.248;2023-04-03T00:24:04;102351.41;;;0.50;87.01
51359;BME280;37448;51.588;7.248;2023-04-03T00:26:05;102352.44;;;0.53;87.07
51359;BME280;37448;51.588;7.248;2023-04-03T00:28:06;102356.09;;;0.59;86.09
51359;BME280;37448;51.588;7.248;2023-04-03T00:30:08;102356.25;;;0.62;85.18
51359;BME280;37448;51.588;7.248;2023-04-03T00:32:10;102357.25;;;0.65;84.59
51359;BME280;37448;51.588;7.248;2023-04-03T00:34:11;102348.00;;;0.69;84.17
51359;BME280;37448;51.588;7.248;2023-04-03T00:36:12;102348.00;;;0.69;85.02
51359;BME280;37448;51.588;7.248;2023-04-03T00:38:12;102354.91;;;0.70;84.99
51359;BME280;37448;51.588;7.248;2023-04-03T00:40:14;102350.06;;;0.76;82.38
51359;BME280;37448;51.588;7.248;2023-04-03T00:42:15;102353.28;;;0.72;85.68
51359;BME280;37448;51.588;7.248;2023-04-03T00:46:35;102355.34;;;0.79;82.57
51359;BME280;37448;51.588;7.248;2023-04-03T00:48:44;102353.56;;;0.78;82.55
51359;BME280;37448;51.588;7.248;2023-04-03T00:50:45;102360.47;;;0.79;82.74
51359;BME280;37448;51.588;7.248;2023-04-03T00:52:46;102358.72;;;0.78;83.26
51359;BME280;37448;51.588;7.248;2023-04-03T00:54:50;102355.06;;;0.73;84.75
51359;BME280;37448;51.588;7.248;2023-04-03T00:56:53;102366.06;;;0.70;86.04
51359;BME280;37448;51.588;7.248;2023-04-03T00:59:04;102368.59;;;0.69;86.58
51359;BME280;37448;51.588;7.248;2023-04-03T01:01:08;102358.44;;;0.72;82.87
51359;BME280;37448;51.588;7.248;2023-04-03T01:03:12;102358.72;;;0.78;80.90
51359;BME280;37448;51.588;7.248;2023-04-03T01:05:16;102366.38;;;0.77;83.12
51359;BME280;37448;51.588;7.248;2023-04-03T01:07:22;102366.38;;;0.77;83.10
51359;BME280;37448;51.588;7.248;2023-04-03T01:09:23;102366.44;;;0.78;83.59
51359;BME280;37448;51.588;7.248;2023-04-03T01:11:24;102358.72;;;0.78;82.81
51359;BME280;37448;51.588;7.248;2023-04-03T01:13:27;102365.47;;;0.76;83.40
51359;BME280;37448;51.588;7.248;2023-04-03T01:15:28;102366.28;;;0.75;83.20
51359;BME280;37448;51.588;7.248;2023-04-03T01:17:38;102374.00;;;0.75;83.55
51359;BME280;37448;51.588;7.248;2023-04-03T01:19:43;102368.72;;;0.72;82.89
51359;BME280;37448;51.588;7.248;2023-04-03T01:21:56;102376.44;;;0.72;82.46
51359;BME280;37448;51.588;7.248;2023-04-03T01:24:11;102371.16;;;0.69;83.40
51359;BME280;37448;51.588;7.248;2023-04-03T01:26:14;102370.22;;;0.67;81.53
51359;BME280;37448;51.588;7.248;2023-04-03T01:28:35;102372.78;;;0.67;83.49
51359;BME280;37448;51.588;7.248;2023-04-03T01:30:42;102377.03;;;0.66;83.41
51359;BME280;37448;51.588;7.248;2023-04-03T01:32:44;102377.84;;;0.65;83.65
51359;BME280;37448;51.588;7.248;2023-04-03T01:34:46;102374.31;;;0.63;83.73
51359;BME280;37448;51.588;7.248;2023-04-03T01:36:47;102371.69;;;0.62;83.54
51359;BME280;37448;51.588;7.248;2023-04-03T01:38:48;102373.44;;;0.63;80.99
51359;BME280;37448;51.588;7.248;2023-04-03T01:40:48;102377.63;;;0.61;81.27
51359;BME280;37448;51.588;7.248;2023-04-03T01:42:49;102374.09;;;0.59;82.46
51359;BME280;37448;51.588;7.248;2023-04-03T01:44:49;102371.50;;;0.59;81.55
51359;BME280;37448;51.588;7.248;2023-04-03T01:46:50;102376.59;;;0.57;81.77
51359;BME280;37448;51.588;7.248;2023-04-03T01:48:50;102378.28;;;0.56;81.66
51359;BME280;37448;51.588;7.248;2023-04-03T01:50:51;102379.19;;;0.57;81.65
51359;BME280;37448;51.588;7.248;2023-04-03T01:52:52;102378.13;;;0.53;81.79
51359;BME280;37448;51.588;7.248;2023-04-03T01:54:52;102371.22;;;0.52;81.84
51359;BME280;37448;51.588;7.248;2023-04-03T01:56:53;102374.63;;;0.51;82.01
51359;BME280;37448;51.588;7.248;2023-04-03T01:58:54;102376.31;;;0.51;80.80
51359;BME280;37448;51.588;7.248;2023-04-03T02:00:55;102370.13;;;0.47;82.38
51359;BME280;37448;51.588;7.248;2023-04-03T02:02:56;102375.94;;;0.43;80.65
51359;BME280;37448;51.588;7.248;2023-04-03T02:04:56;102385.19;;;0.39;83.98
51359;BME280;37448;51.588;7.248;2023-04-03T02:06:57;102381.00;;;0.41;80.71
51359;BME280;37448;51.588;7.248;2023-04-03T02:08:57;102384.31;;;0.39;81.96
51359;BME280;37448;51.588;7.248;2023-04-03T02:10:58;102375.47;;;0.34;80.20
51359;BME280;37448;51.588;7.248;2023-04-03T02:12:58;102385.75;;;0.34;83.53
51359;BME280;37448;51.588;7.248;2023-04-03T02:14:59;102390.75;;;0.31;84.39
51359;BME280;37448;51.588;7.248;2023-04-03T02:17:01;102389.81;;;0.28;81.33
51359;BME280;37448;51.588;7.248;2023-04-03T02:19:05;102386.38;;;0.28;82.05
51359;BME280;37448;51.588;7.248;2023-04-03T02:21:05;102402.50;;;0.25;83.88
51359;BME280;37448;51.588;7.248;2023-04-03T02:23:06;102396.50;;;0.25;81.62
51359;BME280;37448;51.588;7.248;2023-04-03T02:25:07;102396.50;;;0.25;80.88
51359;BME280;37448;51.588;7.248;2023-04-03T02:27:07;102397.22;;;0.22;81.17
51359;BME280;37448;51.588;7.248;2023-04-03T02:29:07;102395.47;;;0.21;82.83
51359;BME280;37448;51.588;7.248;2023-04-03T02:31:09;102398.69;;;0.17;84.05
51359;BME280;37448;51.588;7.248;2023-04-03T02:33:11;102391.78;;;0.16;82.74
51359;BME280;37448;51.588;7.248;2023-04-03T02:35:13;102391.69;;;0.14;81.47
51359;BME280;37448;51.588;7.248;2023-04-03T02:37:14;102393.47;;;0.16;80.47
51359;BME280;37448;51.588;7.248;2023-04-03T02:39:15;102393.41;;;0.14;82.17
51359;BME280;37448;51.588;7.248;2023-04-03T02:41:16;102398.34;;;0.11;81.68
51359;BME280;37448;51.588;7.248;2023-04-03T02:43:17;102404.41;;;0.11;82.80
51359;BME280;37448;51.588;7.248;2023-04-03T02:45:17;102406.88;;;0.10;83.36
51359;BME280;37448;51.588;7.248;2023-04-03T02:47:18;102406.72;;;0.07;82.30
51359;BME280;37448;51.588;7.248;2023-04-03T02:49:18;102408.34;;;0.05;82.35
51359;BME280;37448;51.588;7.248;2023-04-03T02:51:19;102412.53;;;0.03;82.50
51359;BME280;37448;51.588;7.248;2023-04-03T02:53:19;102403.84;;;0.01;82.13
51359;BME280;37448;51.588;7.248;2023-04-03T02:55:20;102402.91;;;-0.02;82.78
51359;BME280;37448;51.588;7.248;2023-04-03T02:57:23;102407.00;;;-0.05;83.04
51359;BME280;37448;51.588;7.248;2023-04-03T02:59:23;102413.84;;;-0.06;82.32
51359;BME280;37448;51.588;7.248;2023-04-03T03:01:24;102399.88;;;-0.11;82.46
51359;BME280;37448;51.588;7.248;2023-04-03T03:03:24;102407.59;;;-0.11;82.95
51359;BME280;37448;51.588;7.248;2023-04-03T03:05:25;102402.34;;;-0.12;82.44
51359;BME280;37448;51.588;7.248;2023-04-03T03:07:25;102407.41;;;-0.14;83.54
51359;BME280;37448;51.588;7.248;2023-04-03T03:09:26;102409.00;;;-0.16;82.84
51359;BME280;37448;51.588;7.248;2023-04-03T03:11:26;102407.19;;;-0.19;82.25
51359;BME280;37448;51.588;7.248;2023-04-03T03:13:27;102408.06;;;-0.18;82.70
51359;BME280;37448;51.588;7.248;2023-04-03T03:15:27;102406.22;;;-0.21;84.19
51359;BME280;37448;51.588;7.248;2023-04-03T03:17:28;102401.81;;;-0.23;84.46
51359;BME280;37448;51.588;7.248;2023-04-03T03:19:28;102406.78;;;-0.26;84.01
51359;BME280;37448;51.588;7.248;2023-04-03T03:21:28;102404.94;;;-0.29;83.44
51359;BME280;37448;51.588;7.248;2023-04-03T03:23:30;102405.81;;;-0.28;83.03
51359;BME280;37448;51.588;7.248;2023-04-03T03:25:32;102399.63;;;-0.32;82.69
51359;BME280;37448;51.588;7.248;2023-04-03T03:27:32;102415.00;;;-0.34;82.75
51359;BME280;37448;51.588;7.248;2023-04-03T03:29:33;102409.75;;;-0.35;82.50
51359;BME280;37448;51.588;7.248;2023-04-03T03:31:33;102413.13;;;-0.36;84.13
51359;BME280;37448;51.588;7.248;2023-04-03T03:33:34;102409.50;;;-0.40;83.30
51359;BME280;37448;51.588;7.248;2023-04-03T03:35:34;102407.59;;;-0.44;84.27
51359;BME280;37448;51.588;7.248;2023-04-03T03:37:35;102412.81;;;-0.42;82.33
51359;BME280;37448;51.588;7.248;2023-04-03T03:39:35;102407.44;;;-0.47;83.68
51359;BME280;37448;51.588;7.248;2023-04-03T03:41:35;102409.91;;;-0.49;83.35
51359;BME280;37448;51.588;7.248;2023-04-03T03:43:37;102416.66;;;-0.51;84.00
51359;BME280;37448;51.588;7.248;2023-04-03T03:45:39;102418.34;;;-0.51;82.74
51359;BME280;37448;51.588;7.248;2023-04-03T03:47:39;102418.19;;;-0.54;82.55
51359;BME280;37448;51.588;7.248;2023-04-03T03:49:41;102412.81;;;-0.59;83.30
51359;BME280;37448;51.588;7.248;2023-04-03T03:51:41;102411.75;;;-0.63;85.02
51359;BME280;37448;51.588;7.248;2023-04-03T03:53:42;102415.06;;;-0.65;83.60
51359;BME280;37448;51.588;7.248;2023-04-03T03:55:47;102413.34;;;-0.65;83.42
51359;BME280;37448;51.588;7.248;2023-04-03T03:57:47;102414.81;;;-0.70;84.29
51359;BME280;37448;51.588;7.248;2023-04-03T03:59:48;102419.78;;;-0.73;85.24
51359;BME280;37448;51.588;7.248;2023-04-03T04:01:51;102420.56;;;-0.74;84.97
51359;BME280;37448;51.588;7.248;2023-04-03T04:03:51;102422.97;;;-0.77;85.74
51359;BME280;37448;51.588;7.248;2023-04-03T04:05:58;102415.19;;;-0.79;85.36
51359;BME280;37448;51.588;7.248;2023-04-03T04:07:58;102413.41;;;-0.80;84.82
51359;BME280;37448;51.588;7.248;2023-04-03T04:09:59;102423.53;;;-0.83;85.11
51359;BME280;37448;51.588;7.248;2023-04-03T04:12:00;102426.78;;;-0.85;85.03
51359;BME280;37448;51.588;7.248;2023-04-03T04:14:01;102425.94;;;-0.86;84.75
51359;BME280;37448;51.588;7.248;2023-04-03T04:16:03;102427.59;;;-0.87;85.24
51359;BME280;37448;51.588;7.248;2023-04-03T04:18:06;102427.59;;;-0.87;84.28
51359;BME280;37448;51.588;7.248;2023-04-03T04:20:07;102425.84;;;-0.88;84.10
51359;BME280;37448;51.588;7.248;2023-04-03T04:22:07;102432.56;;;-0.90;84.71
51359;BME280;37448;51.588;7.248;2023-04-03T04:24:09;102435.94;;;-0.91;84.64
51359;BME280;37448;51.588;7.248;2023-04-03T04:26:11;102437.69;;;-0.90;83.12
51359;BME280;37448;51.588;7.248;2023-04-03T04:28:13;102435.06;;;-0.91;84.11
51359;BME280;37448;51.588;7.248;2023-04-03T04:30:14;102435.88;;;-0.92;84.91
51359;BME280;37448;51.588;7.248;2023-04-03T04:32:15;102434.00;;;-0.95;85.31
51359;BME280;37448;51.588;7.248;2023-04-03T04:34:15;102440.72;;;-0.97;84.51
51359;BME280;37448;51.588;7.248;2023-04-03T04:36:16;102445.75;;;-0.98;85.31
51359;BME280;37448;51.588;7.248;2023-04-03T04:38:19;102446.50;;;-1.01;85.25
51359;BME280;37448;51.588;7.248;2023-04-03T04:40:19;102446.50;;;-1.01;84.76
51359;BME280;37448;51.588;7.248;2023-04-03T04:42:20;102448.91;;;-1.04;84.69
51359;BME280;37448;51.588;7.248;2023-04-03T04:44:23;102450.66;;;-1.03;84.91
51359;BME280;37448;51.588;7.248;2023-04-03T04:46:23;102452.25;;;-1.05;83.69
51359;BME280;37448;51.588;7.248;2023-04-03T04:48:28;102446.16;;;-1.07;84.53
51359;BME280;37448;51.588;7.248;2023-04-03T04:50:29;102453.06;;;-1.06;85.20
51359;BME280;37448;51.588;7.248;2023-04-03T04:52:29;102455.44;;;-1.09;85.32
51359;BME280;37448;51.588;7.248;2023-04-03T04:54:30;102458.78;;;-1.10;84.78
51359;BME280;37448;51.588;7.248;2023-04-03T04:56:31;102453.66;;;-1.10;84.65
51359;BME280;37448;51.588;7.248;2023-04-03T04:58:33;102460.38;;;-1.12;84.27
51359;BME280;37448;51.588;7.248;2023-04-03T05:00:35;102462.94;;;-1.12;85.06
51359;BME280;37448;51.588;7.248;2023-04-03T05:02:35;102467.13;;;-1.14;85.26
51359;BME280;37448;51.588;7.248;2023-04-03T05:04:36;102467.91;;;-1.16;85.38
51359;BME280;37448;51.588;7.248;2023-04-03T05:06:42;102468.72;;;-1.17;84.87
51359;BME280;37448;51.588;7.248;2023-04-03T05:08:48;102469.50;;;-1.18;84.65
51359;BME280;37448;51.588;7.248;2023-04-03T05:10:48;102472.06;;;-1.18;84.13
51359;BME280;37448;51.588;7.248;2023-04-03T05:12:50;102471.28;;;-1.17;83.79
51359;BME280;37448;51.588;7.248;2023-04-03T05:14:51;102474.63;;;-1.18;83.59
51359;BME280;37448;51.588;7.248;2023-04-03T05:16:51;102477.22;;;-1.18;84.14
51359;BME280;37448;51.588;7.248;2023-04-03T05:18:54;102482.25;;;-1.19;84.26
51359;BME280;37448;51.588;7.248;2023-04-03T05:20:56;102478.81;;;-1.20;85.32
51359;BME280;37448;51.588;7.248;2023-04-03T05:22:59;102486.59;;;-1.18;85.21
51359;BME280;37448;51.588;7.248;2023-04-03T05:24:59;102491.72;;;-1.18;84.09
51359;BME280;37448;51.588;7.248;2023-04-03T05:27:01;102487.47;;;-1.18;84.81
51359;BME280;37448;51.588;7.248;2023-04-03T05:29:02;102496.91;;;-1.17;84.25
51359;BME280;37448;51.588;7.248;2023-04-03T05:31:03;102497.88;;;-1.14;85.18
51359;BME280;37448;51.588;7.248;2023-04-03T05:33:08;102506.38;;;-1.16;84.79
51359;BME280;37448;51.588;7.248;2023-04-03T05:35:18;102506.38;;;-1.16;83.95
51359;BME280;37448;51.588;7.248;2023-04-03T05:37:20;102508.94;;;-1.16;84.15
51359;BME280;37448;51.588;7.248;2023-04-03T05:39:21;102511.50;;;-1.16;83.32
51359;BME280;37448;51.588;7.248;2023-04-03T05:41:23;102516.81;;;-1.12;83.63
51359;BME280;37448;51.588;7.248;2023-04-03T05:43:24;102519.47;;;-1.11;83.53
51359;BME280;37448;51.588;7.248;2023-04-03T05:45:25;102513.44;;;-1.11;83.54
51359;BME280;37448;51.588;7.248;2023-04-03T05:47:25;102518.56;;;-1.11;83.70
51359;BME280;37448;51.588;7.248;2023-04-03T05:49:26;102516.09;;;-1.10;83.20
51359;BME280;37448;51.588;7.248;2023-04-03T05:51:33;102522.31;;;-1.06;81.77
51359;BME280;37448;51.588;7.248;2023-04-03T05:53:40;102530.97;;;-1.04;82.86
51359;BME280;37448;51.588;7.248;2023-04-03T05:55:41;102528.56;;;-1.01;81.91
51359;BME280;37448;51.588;7.248;2023-04-03T05:57:41;102532.91;;;-1.00;81.86
51359;BME280;37448;51.588;7.248;2023-04-03T05:59:43;102531.31;;;-0.98;82.85
51359;BME280;37448;51.588;7.248;2023-04-03T06:01:43;102532.78;;;-0.87;82.51
51359;BME280;37448;51.588;7.248;2023-04-03T06:03:44;102530.75;;;-0.46;80.92
51359;BME280;37448;51.588;7.248;2023-04-03T06:05:44;102541.06;;;0.04;81.84
51359;BME280;37448;51.588;7.248;2023-04-03T06:07:46;102535.84;;;0.19;78.68
51359;BME280;37448;51.588;7.248;2023-04-03T06:09:47;102535.19;;;0.23;79.40
51359;BME280;37448;51.588;7.248;2023-04-03T06:11:48;102539.44;;;0.23;79.85
51359;BME280;37448;51.588;7.248;2023-04-03T06:13:49;102540.97;;;0.19;80.96
51359;BME280;37448;51.588;7.248;2023-04-03T06:15:51;102547.31;;;-0.07;77.04
51359;BME280;37448;51.588;7.248;2023-04-03T06:17:52;102545.00;;;-0.03;79.15
51359;BME280;37448;51.588;7.248;2023-04-03T06:19:52;102538.88;;;-0.21;77.43
51359;BME280;37448;51.588;7.248;2023-04-03T06:21:53;102543.53;;;-0.14;79.88
51359;BME280;37448;51.588;7.248;2023-04-03T06:23:53;102537.22;;;-0.21;77.83
51359;BME280;37448;51.588;7.248;2023-04-03T06:25:54;102542.41;;;-0.19;78.63
51359;BME280;37448;51.588;7.248;2023-04-03T06:27:54;102536.16;;;-0.24;78.13
51359;BME280;37448;51.588;7.248;2023-04-03T06:29:55;102533.41;;;-0.27;77.56
51359;BME280;37448;51.588;7.248;2023-04-03T06:31:56;102544.81;;;-0.22;78.64
51359;BME280;37448;51.588;7.248;2023-04-03T06:33:56;102547.94;;;-0.28;77.36
51359;BME280;37448;51.588;7.248;2023-04-03T06:35:58;102545.22;;;-0.15;79.27
51359;BME280;37448;51.588;7.248;2023-04-03T06:37:58;102541.03;;;0.21;76.53
51359;BME280;37448;51.588;7.248;2023-04-03T06:39:59;102533.25;;;0.70;73.81
51359;BME280;37448;51.588;7.248;2023-04-03T06:42:00;102540.00;;;1.21;72.14
51359;BME280;37448;51.588;7.248;2023-04-03T06:44:09;102537.00;;;1.88;75.47
51359;BME280;37448;51.588;7.248;2023-04-03T06:46:19;102532.31;;;2.18;73.24
51359;BME280;37448;51.588;7.248;2023-04-03T06:48:19;102527.28;;;2.62;69.93
51359;BME280;37448;51.588;7.248;2023-04-03T06:50:21;102533.88;;;3.19;71.10
51359;BME280;37448;51.588;7.248;2023-04-03T06:52:21;102539.38;;;3.50;68.14
51359;BME280;37448;51.588;7.248;2023-04-03T06:54:22;102540.16;;;3.49;66.09
51359;BME280;37448;51.588;7.248;2023-04-03T06:56:23;102540.78;;;4.13;68.12
51359;BME280;37448;51.588;7.248;2023-04-03T06:58:23;102545.69;;;4.29;70.34
51359;BME280;37448;51.588;7.248;2023-04-03T07:00:24;102536.69;;;3.71;62.00
51359;BME280;37448;51.588;7.248;2023-04-03T07:02:24;102547.91;;;4.44;68.94
51359;BME280;37448;51.588;7.248;2023-04-03T07:04:25;102547.84;;;4.69;60.92
51359;BME280;37448;51.588;7.248;2023-04-03T07:06:26;102552.88;;;5.17;61.61
51359;BME280;37448;51.588;7.248;2023-04-03T07:08:27;102554.00;;;5.26;61.19
51359;BME280;37448;51.588;7.248;2023-04-03T07:10:27;102559.13;;;5.52;70.15
51359;BME280;37448;51.588;7.248;2023-04-03T07:12:27;102554.09;;;5.58;59.21
51359;BME280;37448;51.588;7.248;2023-04-03T07:14:28;102563.41;;;6.11;63.86
51359;BME280;37448;51.588;7.248;2023-04-03T07:16:28;102552.78;;;6.01;55.88
51359;BME280;37448;51.588;7.248;2023-04-03T07:18:31;102558.63;;;6.58;66.17
51359;BME280;37448;51.588;7.248;2023-04-03T07:20:32;102563.59;;;6.84;62.49
51359;BME280;37448;51.588;7.248;2023-04-03T07:22:32;102565.13;;;6.41;57.55
51359;BME280;37448;51.588;7.248;2023-04-03T07:24:33;102572.50;;;6.59;56.76
51359;BME280;37448;51.588;7.248;2023-04-03T07:26:33;102564.44;;;6.16;54.28
51359;BME280;37448;51.588;7.248;2023-04-03T07:28:34;102576.03;;;6.29;56.86
51359;BME280;37448;51.588;7.248;2023-04-03T07:30:34;102569.72;;;6.19;53.82
51359;BME280;37448;51.588;7.248;2023-04-03T07:32:35;102575.56;;;5.83;55.86
51359;BME280;37448;51.588;7.248;2023-04-03T07:34:36;102572.34;;;6.53;57.09
51359;BME280;37448;51.588;7.248;2023-04-03T07:36:36;102571.03;;;6.69;54.64
51359;BME280;37448;51.588;7.248;2023-04-03T07:38:37;102571.72;;;6.29;53.39
51359;BME280;37448;51.588;7.248;2023-04-03T07:40:38;102572.97;;;6.12;54.43
51359;BME280;37448;51.588;7.248;2023-04-03T07:42:39;102583.94;;;6.67;56.93
51359;BME280;37448;51.588;7.248;2023-04-03T07:44:40;102575.22;;;6.64;54.82
51359;BME280;37448;51.588;7.248;2023-04-03T07:46:41;102576.16;;;6.66;53.34
51359;BME280;37448;51.588;7.248;2023-04-03T07:48:42;102576.16;;;6.66;55.15
51359;BME280;37448;51.588;7.248;2023-04-03T07:50:43;102578.94;;;7.10;52.02
51359;BME280;37448;51.588;7.248;2023-04-03T07:52:45;102580.34;;;6.96;52.85
51359;BME280;37448;51.588;7.248;2023-04-03T07:54:45;102576.19;;;7.02;56.46
51359;BME280;37448;51.588;7.248;2023-04-03T07:56:46;102583.53;;;6.85;53.04
51359;BME280;37448;51.588;7.248;2023-04-03T07:58:46;102582.50;;;5.84;53.54
51359;BME280;37448;51.588;7.248;2023-04-03T08:00:47;102578.84;;;6.70;54.16
51359;BME280;37448;51.588;7.248;2023-04-03T08:02:48;102584.31;;;7.16;53.66
51359;BME280;37448;51.588;7.248;2023-04-03T08:04:51;102581.19;;;8.13;56.21
51359;BME280;37448;51.588;7.248;2023-04-03T08:06:52;102579.25;;;7.23;52.20
51359;BME280;37448;51.588;7.248;2023-04-03T08:08:52;102587.19;;;7.69;54.85
51359;BME280;37448;51.588;7.248;2023-04-03T08:10:53;102572.09;;;7.92;54.21
51359;BME280;37448;51.588;7.248;2023-04-03T08:12:54;102583.78;;;8.13;53.94
51359;BME280;37448;51.588;7.248;2023-04-03T08:14:55;102587.81;;;7.98;50.03
51359;BME280;37448;51.588;7.248;2023-04-03T08:16:56;102584.97;;;7.86;50.12
51359;BME280;37448;51.588;7.248;2023-04-03T08:18:56;102577.78;;;8.18;53.24
51359;BME280;37448;51.588;7.248;2023-04-03T08:20:57;102575.19;;;8.18;51.46
51359;BME280;37448;51.588;7.248;2023-04-03T08:22:57;102585.53;;;7.72;48.72
51359;BME280;37448;51.588;7.248;2023-04-03T08:24:57;102586.38;;;8.14;46.76
51359;BME280;37448;51.588;7.248;2023-04-03T08:26:58;102573.44;;;8.17;49.97
51359;BME280;37448;51.588;7.248;2023-04-03T08:28:58;102569.81;;;7.66;47.40
51359;BME280;37448;51.588;7.248;2023-04-03T08:31:03;102571.66;;;8.15;47.07
51359;BME280;37448;51.588;7.248;2023-04-03T08:33:06;102580.34;;;7.72;47.90
51359;BME280;37448;51.588;7.248;2023-04-03T08:35:07;102582.59;;;7.98;46.75
51359;BME280;37448;51.588;7.248;2023-04-03T08:37:08;102581.00;;;7.62;47.06
51359;BME280;37448;51.588;7.248;2023-04-03T08:39:09;102581.91;;;7.64;45.92
51359;BME280;37448;51.588;7.248;2023-04-03T08:43:34;102583.41;;;8.39;49.94
51359;BME280;37448;51.588;7.248;2023-04-03T08:45:45;102590.16;;;8.30;46.40
51359;BME280;37448;51.588;7.248;2023-04-03T08:47:52;102592.53;;;8.18;43.26
51359;BME280;37448;51.588;7.248;2023-04-03T08:49:59;102589.00;;;9.11;46.93
51359;BME280;37448;51.588;7.248;2023-04-03T08:52:10;102588.66;;;8.42;43.26
51359;BME280;37448;51.588;7.248;2023-04-03T08:54:21;102595.66;;;8.94;47.76
51359;BME280;37448;51.588;7.248;2023-04-03T08:56:24;102591.22;;;9.42;44.59
51359;BME280;37448;51.588;7.248;2023-04-03T08:58:30;102594.91;;;9.01;43.44
51359;BME280;37448;51.588;7.248;2023-04-03T09:00:44;102590.00;;;8.67;40.46
51359;BME280;37448;51.588;7.248;2023-04-03T09:02:49;102586.91;;;8.41;38.94
51359;BME280;37448;51.588;7.248;2023-04-03T09:04:49;102579.66;;;9.24;44.70
51359;BME280;37448;51.588;7.248;2023-04-03T09:06:54;102582.00;;;9.09;42.38
51359;BME280;37448;51.588;7.248;2023-04-03T09:13:38;102590.34;;;9.44;40.41
51359;BME280;37448;51.588;7.248;2023-04-03T09:15:41;102587.97;;;9.01;38.28
51359;BME280;37448;51.588;7.248;2023-04-03T09:20:58;102594.25;;;9.14;38.47
51359;BME280;37448;51.588;7.248;2023-04-03T09:25:34;102594.19;;;9.71;39.65
51359;BME280;37448;51.588;7.248;2023-04-03T09:27:37;102596.50;;;9.50;39.96
51359;BME280;37448;51.588;7.248;2023-04-03T09:29:44;102595.94;;;9.72;38.93
51359;BME280;37448;51.588;7.248;2023-04-03T09:31:48;102598.84;;;9.93;38.12
51359;BME280;37448;51.588;7.248;2023-04-03T09:33:52;102594.72;;;8.88;34.94
51359;BME280;37448;51.588;7.248;2023-04-03T09:35:54;102592.47;;;9.73;36.57
51359;BME280;37448;51.588;7.248;2023-04-03T09:40:27;102584.91;;;9.90;35.28
51359;BME280;37448;51.588;7.248;2023-04-03T09:42:30;102593.00;;;9.47;35.04
51359;BME280;37448;51.588;7.248;2023-04-03T09:44:34;102584.72;;;9.16;35.48
51359;BME280;37448;51.588;7.248;2023-04-03T09:46:35;102584.69;;;9.13;36.26
51359;BME280;37448;51.588;7.248;2023-04-03T09:48:37;102577.81;;;9.83;37.61
51359;BME280;37448;51.588;7.248;2023-04-03T09:52:51;102581.81;;;9.55;35.47
51359;BME280;37448;51.588;7.248;2023-04-03T09:55:10;102575.19;;;9.79;34.51
51359;BME280;37448;51.588;7.248;2023-04-03T09:57:13;102582.03;;;9.73;35.78
51359;BME280;37448;51.588;7.248;2023-04-03T09:59:15;102569.56;;;9.51;36.66
51359;BME280;37448;51.588;7.248;2023-04-03T10:01:23;102578.94;;;9.38;34.91
51359;BME280;37448;51.588;7.248;2023-04-03T10:03:35;102582.19;;;9.83;36.86
51359;BME280;37448;51.588;7.248;2023-04-03T10:05:38;102573.75;;;10.05;36.87
51359;BME280;37448;51.588;7.248;2023-04-03T10:07:38;102578.44;;;10.38;37.40
51359;BME280;37448;51.588;7.248;2023-04-03T10:09:40;102566.19;;;10.30;36.42
51359;BME280;37448;51.588;7.248;2023-04-03T10:14:00;102574.59;;;10.93;38.75
51359;BME280;37448;51.588;7.248;2023-04-03T10:16:12;102578.84;;;9.96;35.08
51359;BME280;37448;51.588;7.248;2023-04-03T10:18:44;102573.47;;;9.82;35.49
51359;BME280;37448;51.588;7.248;2023-04-03T10:20:51;102573.84;;;10.15;35.45
51359;BME280;37448;51.588;7.248;2023-04-03T10:23:14;102581.22;;;10.50;36.33
51359;BME280;37448;51.588;7.248;2023-04-03T10:32:20;102573.44;;;9.77;35.27
51359;BME280;37448;51.588;7.248;2023-04-03T10:34:35;102573.09;;;9.53;35.86
51359;BME280;37448;51.588;7.248;2023-04-03T10:36:58;102571.78;;;9.86;36.13
51359;BME280;37448;51.588;7.248;2023-04-03T10:41:20;102561.88;;;10.36;37.55
51359;BME280;37448;51.588;7.248;2023-04-03T10:46:13;102546.31;;;10.45;35.79
51359;BME280;37448;51.588;7.248;2023-04-03T10:50:45;102544.38;;;10.25;35.95
51359;BME280;37448;51.588;7.248;2023-04-03T10:53:05;102547.38;;;9.81;35.70
51359;BME280;37448;51.588;7.248;2023-04-03T10:57:25;102544.00;;;9.91;35.35
51359;BME280;37448;51.588;7.248;2023-04-03T10:59:43;102539.91;;;10.15;35.27
51359;BME280;37448;51.588;7.248;2023-04-03T11:01:46;102542.25;;;9.90;35.95
51359;BME280;37448;51.588;7.248;2023-04-03T11:03:52;102537.53;;;10.40;33.56
51359;BME280;37448;51.588;7.248;2023-04-03T11:05:54;102530.22;;;10.97;39.09
51359;BME280;37448;51.588;7.248;2023-04-03T11:07:57;102531.53;;;10.47;36.45
51359;BME280;37448;51.588;7.248;2023-04-03T11:10:05;102529.53;;;11.25;38.37
51359;BME280;37448;51.588;7.248;2023-04-03T11:14:24;102535.72;;;10.29;34.28
51359;BME280;37448;51.588;7.248;2023-04-03T11:16:28;102537.09;;;9.96;34.45
51359;BME280;37448;51.588;7.248;2023-04-03T11:18:42;102527.13;;;9.61;33.72
51359;BME280;37448;51.588;7.248;2023-04-03T11:20:53;102510.88;;;9.17;35.97
51359;BME280;37448;51.588;7.248;2023-04-03T11:23:03;102522.63;;;9.51;36.63
51359;BME280;37448;51.588;7.248;2023-04-03T11:27:20;102514.94;;;9.61;34.63
51359;BME280;37448;51.588;7.248;2023-04-03T11:29:25;102499.69;;;9.96;33.97